Airfield :
LOGIN :

Register | Disclaimer

   EN    FR    IT 

 










Legend :    VFR   Marginal VFR   IFR   Intensive IFR   Very Intensive IFR
Visi :
Ceiling :
>= 8 km
>= 3000ft
5 to 8 km
1000 to 3000 ft
1500m to 5 km
500 to 1000 ft
800 to 1500m
200 to 500 ft
< 800m
< 200 ft
Symbols :   Thunderstorms  Fog  Heavy snow  Heavy precipitations  Wind > 20 kt
SIGMETs :     Misc.  Thunderstorms  Icing  Turbulence  Mountain Waves  Volcanic Ashes







- Airport Elevation : 768 ft
- IATA code : MXP


LIMC - Milano Malpensa

CURRENT METAR :
  • 191950Z 03006KT CAVOK 14/02 Q1014 NOSIG

EXPIRED METARs :
  • 191920Z 01007KT CAVOK 13/03 Q1013 NOSIG
  • 191850Z 04008KT CAVOK 16/01 Q1013 NOSIG
  • 191820Z 04007KT CAVOK 17/01 Q1013 NOSIG
  • 191750Z 04008KT CAVOK 18/01 Q1012 NOSIG
  • 191720Z 05009KT CAVOK 19/00 Q1012 NOSIG

TAF TAF LIMC
Valid from the 19 at 18:00 until the 21 at 00:00 UTC


191700Z 1918/2024 34010KT 9999 SCT080
No reported NOTAMs for that airfield.
2 SIGMETs reported for the Milano FIR (LIMM) :
 
Severe turbulence
LIMM SIGMET 12 VALID 192000/200000 LIMM
LIMM MILANO FIR SEV TURB FCST WI N4553 E00741 - N4333 E00816 - N4309 E00945 - N4346 E01124 - N4641 E01027 - N4626 E00821 - N4557 E00740 - N4553 E00741 FL240/390 MOV E NC=
Embedded thunderstorms
LIMM SIGMET 11 VALID 192000/192200 LIMM
LIMM MILANO FIR EMBD TS OBS WI N4310 E00944 - N4441 E00931 - N4344 E01115 - N4311 E00948 - N4310 E00944 TOP FL400 MOV SE NC=



MET'MAP, your aeronautical weather chart ! - Copyright ORBIFLY December 2007 - Disclaimer

ORBIFLY MET'MAP TEAM :

Programming & Development : Alexandra Zaïnal
Concept & Development : Baudouin d'Aumeries
Co-Development & Prog : Marc-Olivier Méhu
Technical & hardware support : Manuel Goepfert

Contact : metmap@orbifly.com




SOURCES & CREDITS :

   NOAA